sensor_id;sensor_type;location;lat;lon;timestamp;pressure;altitude;pressure_sealevel;temperature;humidity
10658;BME280;5377;43.276;26.930;2023-04-25T00:00:43;98395.72;;;11.36;100.00
10658;BME280;5377;43.276;26.930;2023-04-25T00:03:10;98387.69;;;11.36;100.00
10658;BME280;5377;43.276;26.930;2023-04-25T00:05:37;98393.28;;;11.35;100.00
10658;BME280;5377;43.276;26.930;2023-04-25T00:08:05;98379.72;;;11.30;100.00
10658;BME280;5377;43.276;26.930;2023-04-25T00:10:32;98391.94;;;11.25;100.00
10658;BME280;5377;43.276;26.930;2023-04-25T00:12:59;98396.41;;;11.32;100.00
10658;BME280;5377;43.276;26.930;2023-04-25T00:15:27;98398.28;;;11.31;100.00
10658;BME280;5377;43.276;26.930;2023-04-25T00:17:56;98397.44;;;11.31;100.00
10658;BME280;5377;43.276;26.930;2023-04-25T00:20:23;98387.91;;;11.35;100.00
10658;BME280;5377;43.276;26.930;2023-04-25T00:22:50;98390.38;;;11.36;100.00
10658;BME280;5377;43.276;26.930;2023-04-25T00:25:19;98396.31;;;11.38;100.00
10658;BME280;5377;43.276;26.930;2023-04-25T00:27:46;98391.28;;;11.30;100.00
10658;BME280;5377;43.276;26.930;2023-04-25T00:30:13;98386.91;;;11.17;100.00
10658;BME280;5377;43.276;26.930;2023-04-25T00:32:40;98381.69;;;11.22;100.00
10658;BME280;5377;43.276;26.930;2023-04-25T00:35:08;98390.25;;;11.13;100.00
10658;BME280;5377;43.276;26.930;2023-04-25T00:37:35;98387.72;;;11.18;100.00
10658;BME280;5377;43.276;26.930;2023-04-25T00:40:05;98371.91;;;11.10;100.00
10658;BME280;5377;43.276;26.930;2023-04-25T00:42:35;98377.94;;;11.05;100.00
10658;BME280;5377;43.276;26.930;2023-04-25T00:45:05;98365.75;;;10.91;100.00
10658;BME280;5377;43.276;26.930;2023-04-25T00:47:33;98373.50;;;10.99;100.00
10658;BME280;5377;43.276;26.930;2023-04-25T00:49:59;98386.16;;;10.92;100.00
10658;BME280;5377;43.276;26.930;2023-04-25T00:52:26;98378.41;;;11.02;100.00
10658;BME280;5377;43.276;26.930;2023-04-25T00:54:53;98371.09;;;11.09;100.00
10658;BME280;5377;43.276;26.930;2023-04-25T00:57:20;98365.16;;;11.07;100.00
10658;BME280;5377;43.276;26.930;2023-04-25T00:59:51;98366.13;;;11.13;100.00
10658;BME280;5377;43.276;26.930;2023-04-25T01:02:18;98357.94;;;11.08;100.00
10658;BME280;5377;43.276;26.930;2023-04-25T01:04:47;98364.94;;;11.09;100.00
10658;BME280;5377;43.276;26.930;2023-04-25T01:07:14;98354.59;;;11.12;100.00
10658;BME280;5377;43.276;26.930;2023-04-25T01:09:41;98365.47;;;11.17;100.00
10658;BME280;5377;43.276;26.930;2023-04-25T01:12:08;98353.63;;;11.07;100.00
10658;BME280;5377;43.276;26.930;2023-04-25T01:14:35;98344.75;;;11.06;100.00
10658;BME280;5377;43.276;26.930;2023-04-25T01:17:03;98331.81;;;11.03;100.00
10658;BME280;5377;43.276;26.930;2023-04-25T01:19:30;98329.44;;;10.95;100.00
10658;BME280;5377;43.276;26.930;2023-04-25T01:21:59;98342.53;;;11.03;100.00
10658;BME280;5377;43.276;26.930;2023-04-25T01:24:26;98340.81;;;11.09;100.00
10658;BME280;5377;43.276;26.930;2023-04-25T01:26:53;98333.09;;;11.01;100.00
10658;BME280;5377;43.276;26.930;2023-04-25T01:29:22;98338.94;;;11.09;100.00
10658;BME280;5377;43.276;26.930;2023-04-25T01:31:49;98334.63;;;11.08;100.00
10658;BME280;5377;43.276;26.930;2023-04-25T01:34:17;98325.19;;;11.06;100.00
10658;BME280;5377;43.276;26.930;2023-04-25T01:36:44;98325.25;;;10.99;100.00
10658;BME280;5377;43.276;26.930;2023-04-25T01:39:14;98318.00;;;10.88;100.00
10658;BME280;5377;43.276;26.930;2023-04-25T01:41:41;98325.88;;;10.83;100.00
10658;BME280;5377;43.276;26.930;2023-04-25T01:44:09;98316.13;;;10.88;100.00
10658;BME280;5377;43.276;26.930;2023-04-25T01:46:35;98327.81;;;10.94;100.00
10658;BME280;5377;43.276;26.930;2023-04-25T01:49:02;98325.94;;;10.94;100.00
10658;BME280;5377;43.276;26.930;2023-04-25T01:51:29;98311.72;;;10.94;100.00
10658;BME280;5377;43.276;26.930;2023-04-25T01:53:57;98314.41;;;10.94;100.00
10658;BME280;5377;43.276;26.930;2023-04-25T01:56:30;98307.69;;;11.03;100.00
10658;BME280;5377;43.276;26.930;2023-04-25T01:58:57;98301.28;;;11.04;100.00
10658;BME280;5377;43.276;26.930;2023-04-25T02:01:24;98293.38;;;11.09;100.00
10658;BME280;5377;43.276;26.930;2023-04-25T02:03:51;98294.44;;;11.08;100.00
10658;BME280;5377;43.276;26.930;2023-04-25T02:06:18;98301.00;;;11.12;100.00
10658;BME280;5377;43.276;26.930;2023-04-25T02:08:45;98295.69;;;11.24;100.00
10658;BME280;5377;43.276;26.930;2023-04-25T02:11:11;98301.28;;;11.22;100.00
10658;BME280;5377;43.276;26.930;2023-04-25T02:13:40;98298.31;;;11.12;100.00
10658;BME280;5377;43.276;26.930;2023-04-25T02:16:06;98284.53;;;11.09;100.00
10658;BME280;5377;43.276;26.930;2023-04-25T02:18:33;98300.56;;;10.97;100.00
10658;BME280;5377;43.276;26.930;2023-04-25T02:21:02;98288.56;;;11.00;100.00
10658;BME280;5377;43.276;26.930;2023-04-25T02:23:29;98294.75;;;11.00;100.00
10658;BME280;5377;43.276;26.930;2023-04-25T02:25:56;98282.31;;;10.76;100.00
10658;BME280;5377;43.276;26.930;2023-04-25T02:28:23;98278.03;;;10.86;100.00
10658;BME280;5377;43.276;26.930;2023-04-25T02:30:52;98276.78;;;10.89;100.00
10658;BME280;5377;43.276;26.930;2023-04-25T02:33:19;98263.16;;;10.90;100.00
10658;BME280;5377;43.276;26.930;2023-04-25T02:35:46;98273.78;;;10.97;100.00
10658;BME280;5377;43.276;26.930;2023-04-25T02:38:13;98270.97;;;10.92;100.00
10658;BME280;5377;43.276;26.930;2023-04-25T02:40:40;98265.59;;;10.92;100.00
10658;BME280;5377;43.276;26.930;2023-04-25T02:43:07;98263.97;;;10.91;100.00
10658;BME280;5377;43.276;26.930;2023-04-25T02:45:34;98263.97;;;10.91;100.00
10658;BME280;5377;43.276;26.930;2023-04-25T02:48:02;98269.78;;;10.88;100.00
10658;BME280;5377;43.276;26.930;2023-04-25T02:50:29;98267.09;;;10.88;100.00
10658;BME280;5377;43.276;26.930;2023-04-25T02:52:55;98263.38;;;10.89;100.00
10658;BME280;5377;43.276;26.930;2023-04-25T02:55:22;98262.28;;;10.78;100.00
10658;BME280;5377;43.276;26.930;2023-04-25T02:57:49;98260.66;;;10.77;100.00
10658;BME280;5377;43.276;26.930;2023-04-25T03:00:16;98265.09;;;10.83;100.00
10658;BME280;5377;43.276;26.930;2023-04-25T03:02:42;98263.00;;;10.85;100.00
10658;BME280;5377;43.276;26.930;2023-04-25T03:05:11;98261.59;;;10.83;100.00
10658;BME280;5377;43.276;26.930;2023-04-25T03:07:37;98257.06;;;10.83;100.00
10658;BME280;5377;43.276;26.930;2023-04-25T03:10:06;98249.03;;;10.83;100.00
10658;BME280;5377;43.276;26.930;2023-04-25T03:12:33;98255.53;;;10.76;100.00
10658;BME280;5377;43.276;26.930;2023-04-25T03:14:59;98260.03;;;10.75;100.00
10658;BME280;5377;43.276;26.930;2023-04-25T03:17:26;98261.75;;;10.70;100.00
10658;BME280;5377;43.276;26.930;2023-04-25T03:19:53;98255.66;;;10.62;100.00
10658;BME280;5377;43.276;26.930;2023-04-25T03:22:21;98247.13;;;10.54;100.00
10658;BME280;5377;43.276;26.930;2023-04-25T03:24:49;98253.22;;;10.61;100.00
10658;BME280;5377;43.276;26.930;2023-04-25T03:27:16;98249.13;;;10.58;100.00
10658;BME280;5377;43.276;26.930;2023-04-25T03:29:43;98245.84;;;10.56;100.00
10658;BME280;5377;43.276;26.930;2023-04-25T03:32:10;98244.34;;;10.60;100.00
10658;BME280;5377;43.276;26.930;2023-04-25T03:34:36;98243.03;;;10.51;100.00
10658;BME280;5377;43.276;26.930;2023-04-25T03:37:03;98230.00;;;10.37;100.00
10658;BME280;5377;43.276;26.930;2023-04-25T03:39:31;98251.06;;;10.51;100.00
10658;BME280;5377;43.276;26.930;2023-04-25T03:41:58;98245.41;;;10.59;100.00
10658;BME280;5377;43.276;26.930;2023-04-25T03:44:25;98254.03;;;10.61;100.00
10658;BME280;5377;43.276;26.930;2023-04-25T03:46:52;98247.19;;;10.47;100.00
10658;BME280;5377;43.276;26.930;2023-04-25T03:49:18;98253.44;;;10.59;100.00
10658;BME280;5377;43.276;26.930;2023-04-25T03:51:45;98250.03;;;10.52;100.00
10658;BME280;5377;43.276;26.930;2023-04-25T03:54:12;98248.53;;;10.56;100.00
10658;BME280;5377;43.276;26.930;2023-04-25T03:56:40;98252.38;;;10.60;100.00
10658;BME280;5377;43.276;26.930;2023-04-25T03:59:07;98241.22;;;10.63;100.00
10658;BME280;5377;43.276;26.930;2023-04-25T04:01:34;98245.84;;;10.56;100.00
10658;BME280;5377;43.276;26.930;2023-04-25T04:04:01;98248.66;;;10.61;100.00
10658;BME280;5377;43.276;26.930;2023-04-25T04:06:27;98241.72;;;10.72;100.00
10658;BME280;5377;43.276;26.930;2023-04-25T04:08:55;98243.31;;;10.80;100.00
10658;BME280;5377;43.276;26.930;2023-04-25T04:11:22;98242.53;;;10.91;100.00
10658;BME280;5377;43.276;26.930;2023-04-25T04:13:50;98234.50;;;10.91;100.00
10658;BME280;5377;43.276;26.930;2023-04-25T04:16:17;98238.97;;;11.09;100.00
10658;BME280;5377;43.276;26.930;2023-04-25T04:18:45;98239.97;;;11.26;100.00
10658;BME280;5377;43.276;26.930;2023-04-25T04:21:12;98233.81;;;11.25;100.00
10658;BME280;5377;43.276;26.930;2023-04-25T04:23:38;98229.03;;;11.39;100.00
10658;BME280;5377;43.276;26.930;2023-04-25T04:26:05;98223.72;;;11.51;100.00
10658;BME280;5377;43.276;26.930;2023-04-25T04:28:32;98239.72;;;11.57;100.00
10658;BME280;5377;43.276;26.930;2023-04-25T04:31:00;98231.44;;;11.59;100.00
10658;BME280;5377;43.276;26.930;2023-04-25T04:33:28;98222.22;;;11.55;100.00
10658;BME280;5377;43.276;26.930;2023-04-25T04:35:54;98217.78;;;11.61;100.00
10658;BME280;5377;43.276;26.930;2023-04-25T04:38:21;98219.19;;;11.75;100.00
10658;BME280;5377;43.276;26.930;2023-04-25T04:40:48;98221.88;;;11.75;100.00
10658;BME280;5377;43.276;26.930;2023-04-25T04:43:15;98220.06;;;11.87;100.00
10658;BME280;5377;43.276;26.930;2023-04-25T04:45:44;98215.97;;;11.84;100.00
10658;BME280;5377;43.276;26.930;2023-04-25T04:48:12;98206.28;;;11.95;100.00
10658;BME280;5377;43.276;26.930;2023-04-25T04:50:39;98201.97;;;12.06;100.00
10658;BME280;5377;43.276;26.930;2023-04-25T04:53:07;98212.34;;;12.02;100.00
10658;BME280;5377;43.276;26.930;2023-04-25T04:55:34;98210.84;;;12.18;100.00
10658;BME280;5377;43.276;26.930;2023-04-25T04:58:00;98209.28;;;12.34;100.00
10658;BME280;5377;43.276;26.930;2023-04-25T05:00:27;98202.38;;;12.38;100.00
10658;BME280;5377;43.276;26.930;2023-04-25T05:02:54;98201.31;;;12.51;100.00
10658;BME280;5377;43.276;26.930;2023-04-25T05:05:23;98202.47;;;12.55;100.00
10658;BME280;5377;43.276;26.930;2023-04-25T05:07:49;98198.50;;;12.57;100.00
10658;BME280;5377;43.276;26.930;2023-04-25T05:10:17;98199.31;;;12.58;100.00
10658;BME280;5377;43.276;26.930;2023-04-25T05:12:44;98203.81;;;12.69;100.00
10658;BME280;5377;43.276;26.930;2023-04-25T05:15:11;98203.81;;;12.69;100.00
10658;BME280;5377;43.276;26.930;2023-04-25T05:17:38;98187.75;;;12.57;100.00
10658;BME280;5377;43.276;26.930;2023-04-25T05:20:06;98197.72;;;12.33;100.00
10658;BME280;5377;43.276;26.930;2023-04-25T05:22:35;98187.69;;;12.69;100.00
10658;BME280;5377;43.276;26.930;2023-04-25T05:25:02;98197.28;;;12.65;100.00
10658;BME280;5377;43.276;26.930;2023-04-25T05:27:30;98198.88;;;12.77;100.00
10658;BME280;5377;43.276;26.930;2023-04-25T05:29:56;98195.69;;;12.92;100.00
10658;BME280;5377;43.276;26.930;2023-04-25T05:32:23;98203.84;;;13.14;100.00
10658;BME280;5377;43.276;26.930;2023-04-25T05:34:50;98199.53;;;13.25;100.00
10658;BME280;5377;43.276;26.930;2023-04-25T05:37:17;98182.56;;;13.41;100.00
10658;BME280;5377;43.276;26.930;2023-04-25T05:39:46;98185.66;;;13.50;100.00
10658;BME280;5377;43.276;26.930;2023-04-25T05:42:13;98173.44;;;13.42;100.00
10658;BME280;5377;43.276;26.930;2023-04-25T05:44:40;98165.72;;;13.62;100.00
10658;BME280;5377;43.276;26.930;2023-04-25T05:47:06;98163.00;;;13.46;100.00
10658;BME280;5377;43.276;26.930;2023-04-25T05:49:33;98167.22;;;13.92;100.00
10658;BME280;5377;43.276;26.930;2023-04-25T05:52:00;98158.16;;;14.20;100.00
10658;BME280;5377;43.276;26.930;2023-04-25T05:54:27;98157.75;;;14.28;100.00
10658;BME280;5377;43.276;26.930;2023-04-25T05:56:56;98153.75;;;14.30;100.00
10658;BME280;5377;43.276;26.930;2023-04-25T05:59:22;98141.09;;;14.31;100.00
10658;BME280;5377;43.276;26.930;2023-04-25T06:01:49;98148.91;;;14.32;100.00
10658;BME280;5377;43.276;26.930;2023-04-25T06:04:17;98147.53;;;14.52;100.00
10658;BME280;5377;43.276;26.930;2023-04-25T06:06:43;98149.78;;;14.38;100.00
10658;BME280;5377;43.276;26.930;2023-04-25T06:09:10;98143.56;;;14.81;100.00
10658;BME280;5377;43.276;26.930;2023-04-25T06:11:37;98133.88;;;15.12;100.00
10658;BME280;5377;43.276;26.930;2023-04-25T06:14:05;98128.38;;;15.29;100.00
10658;BME280;5377;43.276;26.930;2023-04-25T06:16:32;98126.66;;;15.55;100.00
10658;BME280;5377;43.276;26.930;2023-04-25T06:18:59;98131.09;;;15.66;100.00
10658;BME280;5377;43.276;26.930;2023-04-25T06:21:26;98125.81;;;15.49;99.18
10658;BME280;5377;43.276;26.930;2023-04-25T06:23:53;98131.56;;;15.26;99.10
10658;BME280;5377;43.276;26.930;2023-04-25T06:26:20;98137.34;;;15.40;99.03
10658;BME280;5377;43.276;26.930;2023-04-25T06:28:47;98136.28;;;15.09;100.00
10658;BME280;5377;43.276;26.930;2023-04-25T06:31:15;98130.13;;;15.13;100.00
10658;BME280;5377;43.276;26.930;2023-04-25T06:33:41;98133.31;;;15.42;100.00
10658;BME280;5377;43.276;26.930;2023-04-25T06:36:08;98130.94;;;15.51;99.78
10658;BME280;5377;43.276;26.930;2023-04-25T06:38:35;98126.97;;;15.58;97.10
10658;BME280;5377;43.276;26.930;2023-04-25T06:41:02;98136.69;;;15.59;94.54
10658;BME280;5377;43.276;26.930;2023-04-25T06:43:29;98135.56;;;15.55;94.32
10658;BME280;5377;43.276;26.930;2023-04-25T06:45:58;98132.28;;;15.48;95.25
10658;BME280;5377;43.276;26.930;2023-04-25T06:48:27;98127.13;;;15.79;94.96
10658;BME280;5377;43.276;26.930;2023-04-25T06:50:54;98127.81;;;16.01;95.42
10658;BME280;5377;43.276;26.930;2023-04-25T06:53:21;98122.16;;;16.08;93.77
10658;BME280;5377;43.276;26.930;2023-04-25T06:55:48;98127.16;;;16.36;92.14
10658;BME280;5377;43.276;26.930;2023-04-25T06:58:15;98119.38;;;16.55;92.35
10658;BME280;5377;43.276;26.930;2023-04-25T07:00:42;98117.69;;;16.34;91.46
10658;BME280;5377;43.276;26.930;2023-04-25T07:03:09;98109.09;;;16.57;90.60
10658;BME280;5377;43.276;26.930;2023-04-25T07:05:37;98114.50;;;16.57;90.36
10658;BME280;5377;43.276;26.930;2023-04-25T07:08:04;98110.81;;;16.83;88.83
10658;BME280;5377;43.276;26.930;2023-04-25T07:10:31;98109.50;;;17.06;88.48
10658;BME280;5377;43.276;26.930;2023-04-25T07:12:58;98105.44;;;17.24;86.42
10658;BME280;5377;43.276;26.930;2023-04-25T07:15:25;98108.41;;;17.12;83.92
10658;BME280;5377;43.276;26.930;2023-04-25T07:17:51;98103.00;;;17.48;83.92
10658;BME280;5377;43.276;26.930;2023-04-25T07:20:18;98101.59;;;17.86;83.44
10658;BME280;5377;43.276;26.930;2023-04-25T07:22:46;98097.22;;;18.11;80.90
10658;BME280;5377;43.276;26.930;2023-04-25T07:25:13;98099.91;;;18.16;79.40
10658;BME280;5377;43.276;26.930;2023-04-25T07:27:40;98101.84;;;18.00;78.54
10658;BME280;5377;43.276;26.930;2023-04-25T07:30:08;98107.50;;;18.08;78.37
10658;BME280;5377;43.276;26.930;2023-04-25T07:32:34;98099.47;;;17.78;79.19
10658;BME280;5377;43.276;26.930;2023-04-25T07:35:01;98102.72;;;17.80;78.61
10658;BME280;5377;43.276;26.930;2023-04-25T07:37:28;98099.91;;;18.16;78.99
10658;BME280;5377;43.276;26.930;2023-04-25T07:39:56;98099.38;;;18.03;78.06
10658;BME280;5377;43.276;26.930;2023-04-25T07:42:23;98093.72;;;18.59;78.25
10658;BME280;5377;43.276;26.930;2023-04-25T07:44:50;98087.56;;;18.49;77.73
10658;BME280;5377;43.276;26.930;2023-04-25T07:47:17;98086.88;;;18.72;73.99
10658;BME280;5377;43.276;26.930;2023-04-25T07:49:45;98083.69;;;19.04;74.45
10658;BME280;5377;43.276;26.930;2023-04-25T07:52:12;98073.25;;;19.55;74.15
10658;BME280;5377;43.276;26.930;2023-04-25T07:54:39;98069.47;;;19.80;71.37
10658;BME280;5377;43.276;26.930;2023-04-25T07:57:07;98071.09;;;19.76;67.51
10658;BME280;5377;43.276;26.930;2023-04-25T07:59:34;98066.66;;;20.09;65.84
10658;BME280;5377;43.276;26.930;2023-04-25T08:02:01;98024.81;;;19.62;65.34
10658;BME280;5377;43.276;26.930;2023-04-25T08:04:28;98060.13;;;20.10;64.14
10658;BME280;5377;43.276;26.930;2023-04-25T08:06:54;98062.94;;;20.67;63.36
10658;BME280;5377;43.276;26.930;2023-04-25T08:09:21;98057.38;;;21.28;61.99
10658;BME280;5377;43.276;26.930;2023-04-25T08:11:48;98055.78;;;21.87;59.30
10658;BME280;5377;43.276;26.930;2023-04-25T08:14:17;98054.34;;;21.62;57.77
10658;BME280;5377;43.276;26.930;2023-04-25T08:16:43;98066.44;;;21.56;58.20
10658;BME280;5377;43.276;26.930;2023-04-25T08:19:10;98075.56;;;21.93;58.54
10658;BME280;5377;43.276;26.930;2023-04-25T08:21:37;98068.28;;;21.74;58.99
10658;BME280;5377;43.276;26.930;2023-04-25T08:24:04;98070.59;;;21.81;58.06
10658;BME280;5377;43.276;26.930;2023-04-25T08:26:31;98076.44;;;21.61;57.00
10658;BME280;5377;43.276;26.930;2023-04-25T08:28:59;98069.91;;;22.03;56.70
10658;BME280;5377;43.276;26.930;2023-04-25T08:31:28;98066.50;;;22.25;52.46
10658;BME280;5377;43.276;26.930;2023-04-25T08:33:54;98068.28;;;22.02;54.16
10658;BME280;5377;43.276;26.930;2023-04-25T08:36:21;98055.19;;;22.04;51.59
10658;BME280;5377;43.276;26.930;2023-04-25T08:38:49;98066.16;;;21.99;52.25
10658;BME280;5377;43.276;26.930;2023-04-25T08:41:16;98077.22;;;22.21;50.50
10658;BME280;5377;43.276;26.930;2023-04-25T08:43:44;98068.59;;;22.41;49.85
10658;BME280;5377;43.276;26.930;2023-04-25T08:46:12;98065.81;;;23.27;47.50
10658;BME280;5377;43.276;26.930;2023-04-25T08:48:42;98066.25;;;24.14;45.74
10658;BME280;5377;43.276;26.930;2023-04-25T08:51:15;98048.84;;;24.58;42.54
10658;BME280;5377;43.276;26.930;2023-04-25T08:53:43;98052.59;;;25.14;42.24
10658;BME280;5377;43.276;26.930;2023-04-25T08:56:12;98054.81;;;25.38;41.93
10658;BME280;5377;43.276;26.930;2023-04-25T08:58:43;98050.00;;;25.17;40.88
10658;BME280;5377;43.276;26.930;2023-04-25T09:01:11;98057.41;;;24.65;40.95
10658;BME280;5377;43.276;26.930;2023-04-25T09:03:38;98061.91;;;24.04;42.20
10658;BME280;5377;43.276;26.930;2023-04-25T09:06:07;98056.25;;;23.39;43.51
10658;BME280;5377;43.276;26.930;2023-04-25T09:08:36;98071.97;;;23.11;43.29
10658;BME280;5377;43.276;26.930;2023-04-25T09:11:03;98066.66;;;22.56;44.63
10658;BME280;5377;43.276;26.930;2023-04-25T09:13:30;98070.13;;;21.93;45.46
10658;BME280;5377;43.276;26.930;2023-04-25T09:15:57;98073.16;;;22.05;45.46
10658;BME280;5377;43.276;26.930;2023-04-25T09:18:25;98049.72;;;22.18;47.11
10658;BME280;5377;43.276;26.930;2023-04-25T09:20:53;98052.72;;;22.44;48.56
10658;BME280;5377;43.276;26.930;2023-04-25T09:23:22;98066.91;;;22.82;47.36
10658;BME280;5377;43.276;26.930;2023-04-25T09:25:51;98059.41;;;22.87;47.16
10658;BME280;5377;43.276;26.930;2023-04-25T09:28:23;98072.56;;;22.71;46.63
10658;BME280;5377;43.276;26.930;2023-04-25T09:30:54;98064.63;;;22.97;47.00
10658;BME280;5377;43.276;26.930;2023-04-25T09:33:27;98056.78;;;23.49;47.22
10658;BME280;5377;43.276;26.930;2023-04-25T09:36:01;98049.38;;;24.20;45.56
10658;BME280;5377;43.276;26.930;2023-04-25T09:38:30;98037.56;;;25.37;44.33
10658;BME280;5377;43.276;26.930;2023-04-25T09:40:58;98034.00;;;25.92;40.74
10658;BME280;5377;43.276;26.930;2023-04-25T09:43:26;98028.84;;;25.91;40.97
10658;BME280;5377;43.276;26.930;2023-04-25T09:45:54;98036.25;;;25.43;41.83
10658;BME280;5377;43.276;26.930;2023-04-25T09:48:24;98031.59;;;24.92;42.73
10658;BME280;5377;43.276;26.930;2023-04-25T09:51:04;98037.47;;;24.16;41.39
10658;BME280;5377;43.276;26.930;2023-04-25T09:53:32;98050.91;;;23.33;42.78
10658;BME280;5377;43.276;26.930;2023-04-25T09:56:00;98058.59;;;21.96;45.17
10658;BME280;5377;43.276;26.930;2023-04-25T09:58:30;98053.53;;;21.75;45.72
10658;BME280;5377;43.276;26.930;2023-04-25T10:01:00;98036.72;;;21.41;46.98
10658;BME280;5377;43.276;26.930;2023-04-25T10:03:29;98040.09;;;21.52;47.13
10658;BME280;5377;43.276;26.930;2023-04-25T10:05:59;98044.84;;;21.60;47.77
10658;BME280;5377;43.276;26.930;2023-04-25T10:08:29;98044.03;;;21.59;46.09
10658;BME280;5377;43.276;26.930;2023-04-25T10:11:00;98037.06;;;21.53;46.50
10658;BME280;5377;43.276;26.930;2023-04-25T10:13:28;98031.13;;;21.65;46.77
10658;BME280;5377;43.276;26.930;2023-04-25T10:15:57;98023.38;;;21.26;48.17
10658;BME280;5377;43.276;26.930;2023-04-25T10:18:25;98029.56;;;21.12;48.84
10658;BME280;5377;43.276;26.930;2023-04-25T10:20:53;98035.41;;;21.25;48.83
10658;BME280;5377;43.276;26.930;2023-04-25T10:23:20;98035.00;;;21.12;50.10
10658;BME280;5377;43.276;26.930;2023-04-25T10:25:48;97994.69;;;20.82;49.45
10658;BME280;5377;43.276;26.930;2023-04-25T10:28:17;98023.22;;;20.84;50.13
10658;BME280;5377;43.276;26.930;2023-04-25T10:30:57;98029.31;;;20.95;50.24
10658;BME280;5377;43.276;26.930;2023-04-25T10:33:29;98025.22;;;21.11;50.12
10658;BME280;5377;43.276;26.930;2023-04-25T10:35:58;98018.97;;;21.30;50.82
10658;BME280;5377;43.276;26.930;2023-04-25T10:38:25;98008.81;;;21.90;48.83
10658;BME280;5377;43.276;26.930;2023-04-25T10:41:11;98012.19;;;22.87;46.24
10658;BME280;5377;43.276;26.930;2023-04-25T10:43:40;98001.47;;;23.52;46.80
10658;BME280;5377;43.276;26.930;2023-04-25T10:46:15;97994.97;;;24.10;44.01
10658;BME280;5377;43.276;26.930;2023-04-25T10:48:49;97986.91;;;23.97;43.10
10658;BME280;5377;43.276;26.930;2023-04-25T10:51:18;97989.06;;;23.69;44.02
10658;BME280;5377;43.276;26.930;2023-04-25T10:53:45;97973.72;;;23.59;43.82
10658;BME280;5377;43.276;26.930;2023-04-25T10:56:17;97983.16;;;23.92;43.55
10658;BME280;5377;43.276;26.930;2023-04-25T10:58:45;97982.94;;;23.41;44.73
10658;BME280;5377;43.276;26.930;2023-04-25T11:01:13;97979.09;;;23.42;44.96
10658;BME280;5377;43.276;26.930;2023-04-25T11:03:41;97981.88;;;23.90;44.58
10658;BME280;5377;43.276;26.930;2023-04-25T11:06:15;97976.41;;;23.90;44.94
10658;BME280;5377;43.276;26.930;2023-04-25T11:08:48;97976.63;;;24.02;45.66
10658;BME280;5377;43.276;26.930;2023-04-25T11:11:16;97974.28;;;24.78;45.23
10658;BME280;5377;43.276;26.930;2023-04-25T11:13:43;97975.81;;;25.78;45.91
10658;BME280;5377;43.276;26.930;2023-04-25T11:16:11;97965.72;;;26.20;41.59
10658;BME280;5377;43.276;26.930;2023-04-25T11:18:40;97964.59;;;25.54;40.58
10658;BME280;5377;43.276;26.930;2023-04-25T11:21:07;97962.19;;;25.52;38.62
10658;BME280;5377;43.276;26.930;2023-04-25T11:23:34;97961.50;;;25.17;40.44
10658;BME280;5377;43.276;26.930;2023-04-25T11:26:02;97967.19;;;24.77;41.66
10658;BME280;5377;43.276;26.930;2023-04-25T11:28:29;97965.41;;;24.47;43.01
10658;BME280;5377;43.276;26.930;2023-04-25T11:30:56;97960.22;;;24.19;42.16
10658;BME280;5377;43.276;26.930;2023-04-25T11:33:25;97960.44;;;23.75;42.61
10658;BME280;5377;43.276;26.930;2023-04-25T11:35:53;97964.53;;;24.03;43.28
10658;BME280;5377;43.276;26.930;2023-04-25T11:38:22;97953.97;;;23.62;43.96
10658;BME280;5377;43.276;26.930;2023-04-25T11:40:52;97947.56;;;23.67;44.29
10658;BME280;5377;43.276;26.930;2023-04-25T11:43:20;97947.50;;;23.58;45.35
10658;BME280;5377;43.276;26.930;2023-04-25T11:45:47;97933.09;;;23.75;45.53
10658;BME280;5377;43.276;26.930;2023-04-25T11:48:14;97945.91;;;23.57;44.59
10658;BME280;5377;43.276;26.930;2023-04-25T11:50:43;97929.91;;;23.42;45.39
10658;BME280;5377;43.276;26.930;2023-04-25T11:53:10;97935.38;;;23.42;45.61
10658;BME280;5377;43.276;26.930;2023-04-25T11:55:37;97929.63;;;23.52;44.62
10658;BME280;5377;43.276;26.930;2023-04-25T11:58:04;97937.25;;;23.63;44.98
10658;BME280;5377;43.276;26.930;2023-04-25T12:00:31;97940.63;;;23.60;46.10
10658;BME280;5377;43.276;26.930;2023-04-25T12:02:58;97942.16;;;23.53;46.97
10658;BME280;5377;43.276;26.930;2023-04-25T12:05:27;97920.44;;;23.08;46.60
10658;BME280;5377;43.276;26.930;2023-04-25T12:07:56;97927.59;;;22.73;47.71
10658;BME280;5377;43.276;26.930;2023-04-25T12:10:24;97928.19;;;22.25;49.04
10658;BME280;5377;43.276;26.930;2023-04-25T12:12:52;97922.28;;;22.09;50.10
10658;BME280;5377;43.276;26.930;2023-04-25T12:15:23;97925.94;;;21.50;51.10
10658;BME280;5377;43.276;26.930;2023-04-25T12:17:52;97920.84;;;21.02;52.07
10658;BME280;5377;43.276;26.930;2023-04-25T12:20:21;97917.25;;;20.74;53.23
10658;BME280;5377;43.276;26.930;2023-04-25T12:22:49;97922.75;;;20.55;53.82
10658;BME280;5377;43.276;26.930;2023-04-25T12:25:36;97918.84;;;20.24;54.63
10658;BME280;5377;43.276;26.930;2023-04-25T12:28:11;97929.06;;;19.94;55.50
10658;BME280;5377;43.276;26.930;2023-04-25T12:30:52;97927.81;;;19.87;56.22
10658;BME280;5377;43.276;26.930;2023-04-25T12:33:20;97931.63;;;19.86;57.28
10658;BME280;5377;43.276;26.930;2023-04-25T12:35:47;97933.13;;;19.73;57.66
10658;BME280;5377;43.276;26.930;2023-04-25T12:38:21;97960.19;;;19.59;58.27
10658;BME280;5377;43.276;26.930;2023-04-25T12:40:49;98009.25;;;19.15;58.84
10658;BME280;5377;43.276;26.930;2023-04-25T12:43:16;98015.94;;;18.00;64.44
10658;BME280;5377;43.276;26.930;2023-04-25T12:45:43;97998.72;;;17.66;72.42
10658;BME280;5377;43.276;26.930;2023-04-25T12:48:10;98003.19;;;17.06;84.83
10658;BME280;5377;43.276;26.930;2023-04-25T12:50:36;98016.03;;;16.17;100.00
10658;BME280;5377;43.276;26.930;2023-04-25T12:53:03;98019.34;;;15.62;100.00
10658;BME280;5377;43.276;26.930;2023-04-25T12:55:30;98048.25;;;14.92;100.00
10658;BME280;5377;43.276;26.930;2023-04-25T12:57:58;98059.88;;;14.66;100.00